sensor_id;sensor_type;location;lat;lon;timestamp;temperature;humidity
592;DHT22;283;53.608;10.046;2022-07-24T00:01:09;14.10;99.90
592;DHT22;283;53.608;10.046;2022-07-24T00:03:37;14.10;99.90
592;DHT22;283;53.608;10.046;2022-07-24T00:06:08;14.10;99.90
592;DHT22;283;53.608;10.046;2022-07-24T00:08:36;14.10;99.90
592;DHT22;283;53.608;10.046;2022-07-24T00:11:06;14.10;99.90
592;DHT22;283;53.608;10.046;2022-07-24T00:13:34;14.10;99.90
592;DHT22;283;53.608;10.046;2022-07-24T00:16:01;14.10;99.90
592;DHT22;283;53.608;10.046;2022-07-24T00:18:30;14.00;99.90
592;DHT22;283;53.608;10.046;2022-07-24T00:20:57;14.00;99.90
592;DHT22;283;53.608;10.046;2022-07-24T00:23:26;14.00;99.90
592;DHT22;283;53.608;10.046;2022-07-24T00:25:53;13.90;99.90
592;DHT22;283;53.608;10.046;2022-07-24T00:28:23;13.90;99.90
592;DHT22;283;53.608;10.046;2022-07-24T00:30:51;13.80;99.90
592;DHT22;283;53.608;10.046;2022-07-24T00:33:19;13.90;99.90
592;DHT22;283;53.608;10.046;2022-07-24T00:35:47;13.90;99.90
592;DHT22;283;53.608;10.046;2022-07-24T00:38:14;13.80;99.90
592;DHT22;283;53.608;10.046;2022-07-24T00:40:42;13.80;99.90
592;DHT22;283;53.608;10.046;2022-07-24T00:43:11;13.80;99.90
592;DHT22;283;53.608;10.046;2022-07-24T00:45:40;13.70;99.90
592;DHT22;283;53.608;10.046;2022-07-24T00:48:10;13.80;99.90
592;DHT22;283;53.608;10.046;2022-07-24T00:50:38;13.80;99.90
592;DHT22;283;53.608;10.046;2022-07-24T00:53:07;13.80;99.90
592;DHT22;283;53.608;10.046;2022-07-24T00:55:35;13.70;99.90
592;DHT22;283;53.608;10.046;2022-07-24T00:58:06;13.70;99.90
592;DHT22;283;53.608;10.046;2022-07-24T01:00:36;13.70;99.90
592;DHT22;283;53.608;10.046;2022-07-24T01:03:06;13.70;99.90
592;DHT22;283;53.608;10.046;2022-07-24T01:05:34;13.70;99.90
592;DHT22;283;53.608;10.046;2022-07-24T01:08:03;13.70;99.90
592;DHT22;283;53.608;10.046;2022-07-24T01:10:31;13.70;99.90
592;DHT22;283;53.608;10.046;2022-07-24T01:13:00;13.70;99.90
592;DHT22;283;53.608;10.046;2022-07-24T01:15:28;13.60;99.90
592;DHT22;283;53.608;10.046;2022-07-24T01:17:56;13.60;99.90
592;DHT22;283;53.608;10.046;2022-07-24T01:20:25;13.60;99.90
592;DHT22;283;53.608;10.046;2022-07-24T01:22:54;13.60;99.90
592;DHT22;283;53.608;10.046;2022-07-24T01:25:23;13.60;99.90
592;DHT22;283;53.608;10.046;2022-07-24T01:27:51;13.60;99.90
592;DHT22;283;53.608;10.046;2022-07-24T01:30:19;13.50;99.90
592;DHT22;283;53.608;10.046;2022-07-24T01:32:47;13.50;99.90
592;DHT22;283;53.608;10.046;2022-07-24T01:35:15;13.50;99.90
592;DHT22;283;53.608;10.046;2022-07-24T01:37:49;13.60;99.90
592;DHT22;283;53.608;10.046;2022-07-24T01:40:18;13.60;99.90
592;DHT22;283;53.608;10.046;2022-07-24T01:42:46;13.50;99.90
592;DHT22;283;53.608;10.046;2022-07-24T01:45:14;13.50;99.90
592;DHT22;283;53.608;10.046;2022-07-24T01:47:42;13.50;99.90
592;DHT22;283;53.608;10.046;2022-07-24T01:50:13;13.50;99.90
592;DHT22;283;53.608;10.046;2022-07-24T01:52:42;13.40;99.90
592;DHT22;283;53.608;10.046;2022-07-24T01:55:10;13.40;99.90
592;DHT22;283;53.608;10.046;2022-07-24T01:57:40;13.40;99.90
592;DHT22;283;53.608;10.046;2022-07-24T02:00:10;13.40;99.90
592;DHT22;283;53.608;10.046;2022-07-24T02:02:40;13.40;99.90
592;DHT22;283;53.608;10.046;2022-07-24T02:05:09;13.40;99.90
592;DHT22;283;53.608;10.046;2022-07-24T02:07:37;13.40;99.90
592;DHT22;283;53.608;10.046;2022-07-24T02:10:05;13.30;99.90
592;DHT22;283;53.608;10.046;2022-07-24T02:12:33;13.30;99.90
592;DHT22;283;53.608;10.046;2022-07-24T02:15:03;13.20;99.90
592;DHT22;283;53.608;10.046;2022-07-24T02:23:39;13.20;99.90
592;DHT22;283;53.608;10.046;2022-07-24T02:26:07;13.20;99.90
592;DHT22;283;53.608;10.046;2022-07-24T02:28:35;13.20;99.90
592;DHT22;283;53.608;10.046;2022-07-24T02:31:04;13.20;99.90
592;DHT22;283;53.608;10.046;2022-07-24T02:33:33;13.20;99.90
592;DHT22;283;53.608;10.046;2022-07-24T02:36:01;13.20;99.90
592;DHT22;283;53.608;10.046;2022-07-24T02:38:30;13.20;99.90
592;DHT22;283;53.608;10.046;2022-07-24T02:40:58;13.10;99.90
592;DHT22;283;53.608;10.046;2022-07-24T02:43:26;13.10;99.90
592;DHT22;283;53.608;10.046;2022-07-24T02:45:54;13.10;99.90
592;DHT22;283;53.608;10.046;2022-07-24T02:48:23;13.10;99.90
592;DHT22;283;53.608;10.046;2022-07-24T02:50:51;13.10;99.90
592;DHT22;283;53.608;10.046;2022-07-24T02:53:19;13.10;99.90
592;DHT22;283;53.608;10.046;2022-07-24T02:55:47;13.10;99.90
592;DHT22;283;53.608;10.046;2022-07-24T02:58:15;13.10;99.90
592;DHT22;283;53.608;10.046;2022-07-24T03:00:43;13.10;99.90
592;DHT22;283;53.608;10.046;2022-07-24T03:03:11;13.10;99.90
592;DHT22;283;53.608;10.046;2022-07-24T03:05:41;13.10;99.90
592;DHT22;283;53.608;10.046;2022-07-24T03:08:09;13.20;99.90
592;DHT22;283;53.608;10.046;2022-07-24T03:10:37;13.10;99.90
592;DHT22;283;53.608;10.046;2022-07-24T03:13:05;13.10;99.90
592;DHT22;283;53.608;10.046;2022-07-24T03:15:33;13.10;99.90
592;DHT22;283;53.608;10.046;2022-07-24T03:18:02;13.10;99.90
592;DHT22;283;53.608;10.046;2022-07-24T03:20:45;13.00;99.90
592;DHT22;283;53.608;10.046;2022-07-24T03:23:13;13.00;99.90
592;DHT22;283;53.608;10.046;2022-07-24T03:25:41;13.00;99.90
592;DHT22;283;53.608;10.046;2022-07-24T03:28:10;13.00;99.90
592;DHT22;283;53.608;10.046;2022-07-24T03:30:41;13.00;99.90
592;DHT22;283;53.608;10.046;2022-07-24T03:33:09;13.00;99.90
592;DHT22;283;53.608;10.046;2022-07-24T03:35:37;13.00;99.90
592;DHT22;283;53.608;10.046;2022-07-24T03:38:10;13.00;99.90
592;DHT22;283;53.608;10.046;2022-07-24T03:40:38;13.00;99.90
592;DHT22;283;53.608;10.046;2022-07-24T03:43:06;13.00;99.90
592;DHT22;283;53.608;10.046;2022-07-24T03:45:34;13.10;99.90
592;DHT22;283;53.608;10.046;2022-07-24T03:48:02;13.10;99.90
592;DHT22;283;53.608;10.046;2022-07-24T03:50:30;13.10;99.90
592;DHT22;283;53.608;10.046;2022-07-24T03:52:59;13.10;99.90
592;DHT22;283;53.608;10.046;2022-07-24T03:55:28;13.10;99.90
592;DHT22;283;53.608;10.046;2022-07-24T03:57:56;13.10;99.90
592;DHT22;283;53.608;10.046;2022-07-24T04:00:24;13.20;99.90
592;DHT22;283;53.608;10.046;2022-07-24T04:02:55;13.20;99.90
592;DHT22;283;53.608;10.046;2022-07-24T04:05:23;13.30;99.90
592;DHT22;283;53.608;10.046;2022-07-24T04:07:51;13.30;99.90
592;DHT22;283;53.608;10.046;2022-07-24T04:10:19;13.30;99.90
592;DHT22;283;53.608;10.046;2022-07-24T04:12:49;13.30;99.90
592;DHT22;283;53.608;10.046;2022-07-24T04:15:17;13.40;99.90
592;DHT22;283;53.608;10.046;2022-07-24T04:17:45;13.50;99.90
592;DHT22;283;53.608;10.046;2022-07-24T04:20:13;13.50;99.90
592;DHT22;283;53.608;10.046;2022-07-24T04:22:41;13.50;99.90
592;DHT22;283;53.608;10.046;2022-07-24T04:25:09;13.50;99.90
592;DHT22;283;53.608;10.046;2022-07-24T04:27:37;13.60;99.90
592;DHT22;283;53.608;10.046;2022-07-24T04:30:08;13.60;99.90
592;DHT22;283;53.608;10.046;2022-07-24T04:32:38;13.70;99.90
592;DHT22;283;53.608;10.046;2022-07-24T04:35:06;13.80;99.90
592;DHT22;283;53.608;10.046;2022-07-24T04:37:35;13.80;99.90
592;DHT22;283;53.608;10.046;2022-07-24T04:40:03;13.80;99.90
592;DHT22;283;53.608;10.046;2022-07-24T04:42:31;13.80;99.90
592;DHT22;283;53.608;10.046;2022-07-24T04:44:59;13.90;99.90
592;DHT22;283;53.608;10.046;2022-07-24T04:47:28;14.00;99.90
592;DHT22;283;53.608;10.046;2022-07-24T04:49:56;14.00;99.90
592;DHT22;283;53.608;10.046;2022-07-24T04:52:25;14.10;99.90
592;DHT22;283;53.608;10.046;2022-07-24T04:54:52;14.20;99.90
592;DHT22;283;53.608;10.046;2022-07-24T04:57:20;14.10;99.90
592;DHT22;283;53.608;10.046;2022-07-24T04:59:51;14.20;99.90
592;DHT22;283;53.608;10.046;2022-07-24T05:02:19;14.30;99.90
592;DHT22;283;53.608;10.046;2022-07-24T05:04:51;14.30;99.90
592;DHT22;283;53.608;10.046;2022-07-24T05:07:19;14.40;99.90
592;DHT22;283;53.608;10.046;2022-07-24T05:09:50;14.40;99.90
592;DHT22;283;53.608;10.046;2022-07-24T05:12:24;14.50;99.90
592;DHT22;283;53.608;10.046;2022-07-24T05:14:53;14.50;99.90
592;DHT22;283;53.608;10.046;2022-07-24T05:17:21;14.50;99.90
592;DHT22;283;53.608;10.046;2022-07-24T05:19:50;14.70;99.90
592;DHT22;283;53.608;10.046;2022-07-24T05:22:18;14.70;99.90
592;DHT22;283;53.608;10.046;2022-07-24T05:24:51;14.80;99.90
592;DHT22;283;53.608;10.046;2022-07-24T05:27:19;14.90;99.90
592;DHT22;283;53.608;10.046;2022-07-24T05:29:47;15.00;99.90
592;DHT22;283;53.608;10.046;2022-07-24T05:32:16;15.00;99.90
592;DHT22;283;53.608;10.046;2022-07-24T05:34:44;15.00;99.90
592;DHT22;283;53.608;10.046;2022-07-24T05:37:15;15.10;99.90
592;DHT22;283;53.608;10.046;2022-07-24T05:39:43;15.20;99.90
592;DHT22;283;53.608;10.046;2022-07-24T05:42:24;15.30;99.90
592;DHT22;283;53.608;10.046;2022-07-24T05:44:52;15.40;99.90
592;DHT22;283;53.608;10.046;2022-07-24T05:47:20;15.50;99.90
592;DHT22;283;53.608;10.046;2022-07-24T05:49:48;15.50;99.90
592;DHT22;283;53.608;10.046;2022-07-24T05:52:19;15.60;99.90
592;DHT22;283;53.608;10.046;2022-07-24T05:54:47;15.60;99.90
592;DHT22;283;53.608;10.046;2022-07-24T05:57:15;15.70;99.90
592;DHT22;283;53.608;10.046;2022-07-24T05:59:43;15.80;99.90
592;DHT22;283;53.608;10.046;2022-07-24T06:02:12;15.90;99.90
592;DHT22;283;53.608;10.046;2022-07-24T06:04:40;16.00;99.90
592;DHT22;283;53.608;10.046;2022-07-24T06:07:09;16.10;99.90
592;DHT22;283;53.608;10.046;2022-07-24T06:09:42;16.10;99.90
592;DHT22;283;53.608;10.046;2022-07-24T06:12:17;16.30;99.90
592;DHT22;283;53.608;10.046;2022-07-24T06:14:48;16.30;99.90
592;DHT22;283;53.608;10.046;2022-07-24T06:17:16;16.50;99.90
592;DHT22;283;53.608;10.046;2022-07-24T06:19:44;16.60;99.90
592;DHT22;283;53.608;10.046;2022-07-24T06:22:15;16.70;99.90
592;DHT22;283;53.608;10.046;2022-07-24T06:24:44;16.90;99.90
592;DHT22;283;53.608;10.046;2022-07-24T06:27:13;17.00;99.90
592;DHT22;283;53.608;10.046;2022-07-24T06:29:41;17.10;99.90
592;DHT22;283;53.608;10.046;2022-07-24T06:32:12;17.30;99.90
592;DHT22;283;53.608;10.046;2022-07-24T06:34:44;17.50;99.90
592;DHT22;283;53.608;10.046;2022-07-24T06:37:12;17.70;99.90
592;DHT22;283;53.608;10.046;2022-07-24T06:39:41;17.80;99.90
592;DHT22;283;53.608;10.046;2022-07-24T06:42:11;17.90;99.90
592;DHT22;283;53.608;10.046;2022-07-24T06:44:39;18.00;99.90
592;DHT22;283;53.608;10.046;2022-07-24T06:47:07;18.00;99.90
592;DHT22;283;53.608;10.046;2022-07-24T06:49:35;18.00;99.90
592;DHT22;283;53.608;10.046;2022-07-24T06:52:04;18.00;99.90
592;DHT22;283;53.608;10.046;2022-07-24T06:54:32;18.10;99.90
592;DHT22;283;53.608;10.046;2022-07-24T06:57:00;18.20;99.90
592;DHT22;283;53.608;10.046;2022-07-24T06:59:30;18.20;99.90
592;DHT22;283;53.608;10.046;2022-07-24T07:01:59;18.20;99.90
592;DHT22;283;53.608;10.046;2022-07-24T07:04:27;18.30;99.90
592;DHT22;283;53.608;10.046;2022-07-24T07:06:55;18.40;99.90
592;DHT22;283;53.608;10.046;2022-07-24T07:09:23;18.50;99.90
592;DHT22;283;53.608;10.046;2022-07-24T07:11:51;18.60;99.90
592;DHT22;283;53.608;10.046;2022-07-24T07:14:20;18.70;99.90
592;DHT22;283;53.608;10.046;2022-07-24T07:16:50;18.70;99.90
592;DHT22;283;53.608;10.046;2022-07-24T07:19:19;18.80;99.90
592;DHT22;283;53.608;10.046;2022-07-24T07:21:47;18.90;99.90
592;DHT22;283;53.608;10.046;2022-07-24T07:24:15;19.00;99.90
592;DHT22;283;53.608;10.046;2022-07-24T07:26:43;19.10;99.90
592;DHT22;283;53.608;10.046;2022-07-24T07:29:11;19.10;99.90
592;DHT22;283;53.608;10.046;2022-07-24T07:31:40;19.20;99.90
592;DHT22;283;53.608;10.046;2022-07-24T07:34:12;19.30;99.90
592;DHT22;283;53.608;10.046;2022-07-24T07:36:40;19.40;99.90
592;DHT22;283;53.608;10.046;2022-07-24T07:39:09;19.40;99.90
592;DHT22;283;53.608;10.046;2022-07-24T07:41:37;19.50;99.90
592;DHT22;283;53.608;10.046;2022-07-24T07:44:07;19.50;99.90
592;DHT22;283;53.608;10.046;2022-07-24T07:46:35;19.60;99.90
592;DHT22;283;53.608;10.046;2022-07-24T07:49:06;19.70;99.90
592;DHT22;283;53.608;10.046;2022-07-24T07:51:37;19.70;99.90
592;DHT22;283;53.608;10.046;2022-07-24T07:54:06;19.80;99.90
592;DHT22;283;53.608;10.046;2022-07-24T07:56:34;19.90;99.90
592;DHT22;283;53.608;10.046;2022-07-24T07:59:02;19.90;99.90
592;DHT22;283;53.608;10.046;2022-07-24T08:01:37;20.10;99.90
592;DHT22;283;53.608;10.046;2022-07-24T08:04:07;20.10;99.90
592;DHT22;283;53.608;10.046;2022-07-24T08:06:50;20.20;99.90
592;DHT22;283;53.608;10.046;2022-07-24T08:09:28;20.30;99.90
592;DHT22;283;53.608;10.046;2022-07-24T08:12:15;20.40;99.90
592;DHT22;283;53.608;10.046;2022-07-24T08:14:43;20.60;99.90
592;DHT22;283;53.608;10.046;2022-07-24T08:17:11;20.60;99.90
592;DHT22;283;53.608;10.046;2022-07-24T08:19:40;20.70;99.90
592;DHT22;283;53.608;10.046;2022-07-24T08:22:10;20.70;99.90
592;DHT22;283;53.608;10.046;2022-07-24T08:24:41;20.70;99.90
592;DHT22;283;53.608;10.046;2022-07-24T08:27:09;20.70;99.90
592;DHT22;283;53.608;10.046;2022-07-24T08:29:36;20.80;99.90
592;DHT22;283;53.608;10.046;2022-07-24T08:32:05;21.00;99.90
592;DHT22;283;53.608;10.046;2022-07-24T08:34:33;21.10;99.90
592;DHT22;283;53.608;10.046;2022-07-24T08:37:00;21.10;99.90
592;DHT22;283;53.608;10.046;2022-07-24T08:39:30;21.30;99.90
592;DHT22;283;53.608;10.046;2022-07-24T08:41:58;21.40;99.90
592;DHT22;283;53.608;10.046;2022-07-24T08:44:25;21.40;99.90
592;DHT22;283;53.608;10.046;2022-07-24T08:46:54;21.40;99.90
592;DHT22;283;53.608;10.046;2022-07-24T08:49:26;21.40;99.90
592;DHT22;283;53.608;10.046;2022-07-24T08:51:59;21.50;99.90
592;DHT22;283;53.608;10.046;2022-07-24T08:54:30;21.60;99.90
592;DHT22;283;53.608;10.046;2022-07-24T08:56:58;21.60;99.90
592;DHT22;283;53.608;10.046;2022-07-24T08:59:26;21.80;99.90
592;DHT22;283;53.608;10.046;2022-07-24T09:01:54;21.90;99.90
592;DHT22;283;53.608;10.046;2022-07-24T09:04:32;22.00;99.90
592;DHT22;283;53.608;10.046;2022-07-24T09:07:02;22.10;99.90
592;DHT22;283;53.608;10.046;2022-07-24T09:09:36;22.10;99.90
592;DHT22;283;53.608;10.046;2022-07-24T09:12:08;22.00;99.90
592;DHT22;283;53.608;10.046;2022-07-24T09:14:38;22.20;99.90
592;DHT22;283;53.608;10.046;2022-07-24T09:17:08;22.30;99.90
592;DHT22;283;53.608;10.046;2022-07-24T09:19:51;22.50;99.90
592;DHT22;283;53.608;10.046;2022-07-24T09:22:32;22.60;99.90
592;DHT22;283;53.608;10.046;2022-07-24T09:25:07;22.80;99.90
592;DHT22;283;53.608;10.046;2022-07-24T09:27:36;22.70;99.90
592;DHT22;283;53.608;10.046;2022-07-24T09:30:06;22.70;99.90
592;DHT22;283;53.608;10.046;2022-07-24T09:32:40;22.70;99.90
592;DHT22;283;53.608;10.046;2022-07-24T09:35:09;22.80;99.90
592;DHT22;283;53.608;10.046;2022-07-24T09:37:37;22.80;99.90
592;DHT22;283;53.608;10.046;2022-07-24T09:40:08;22.90;99.90
592;DHT22;283;53.608;10.046;2022-07-24T09:42:37;23.10;99.90
592;DHT22;283;53.608;10.046;2022-07-24T09:45:08;23.30;99.90
592;DHT22;283;53.608;10.046;2022-07-24T09:47:38;23.50;99.90
592;DHT22;283;53.608;10.046;2022-07-24T09:50:15;23.60;99.90
592;DHT22;283;53.608;10.046;2022-07-24T09:52:43;23.70;99.90
592;DHT22;283;53.608;10.046;2022-07-24T09:55:24;23.80;99.90
592;DHT22;283;53.608;10.046;2022-07-24T09:57:53;23.90;99.90
592;DHT22;283;53.608;10.046;2022-07-24T10:00:21;23.90;99.90
592;DHT22;283;53.608;10.046;2022-07-24T10:02:51;24.00;99.90
592;DHT22;283;53.608;10.046;2022-07-24T10:05:23;24.10;99.90
592;DHT22;283;53.608;10.046;2022-07-24T10:07:55;23.90;99.90
592;DHT22;283;53.608;10.046;2022-07-24T10:10:27;24.00;99.90
592;DHT22;283;53.608;10.046;2022-07-24T10:12:56;24.10;99.90
592;DHT22;283;53.608;10.046;2022-07-24T10:15:29;24.20;99.90
592;DHT22;283;53.608;10.046;2022-07-24T10:18:17;24.40;99.90
592;DHT22;283;53.608;10.046;2022-07-24T10:20:47;24.50;99.90
592;DHT22;283;53.608;10.046;2022-07-24T10:23:25;24.70;99.90
592;DHT22;283;53.608;10.046;2022-07-24T10:26:04;24.90;99.90
592;DHT22;283;53.608;10.046;2022-07-24T10:28:38;25.00;99.90
592;DHT22;283;53.608;10.046;2022-07-24T10:31:09;25.10;99.90
592;DHT22;283;53.608;10.046;2022-07-24T10:33:40;25.20;99.90
592;DHT22;283;53.608;10.046;2022-07-24T10:36:15;25.30;99.90
592;DHT22;283;53.608;10.046;2022-07-24T10:38:51;25.40;99.90
592;DHT22;283;53.608;10.046;2022-07-24T10:41:25;25.50;99.90
592;DHT22;283;53.608;10.046;2022-07-24T10:44:11;25.60;99.90
592;DHT22;283;53.608;10.046;2022-07-24T10:47:02;25.70;99.90
592;DHT22;283;53.608;10.046;2022-07-24T10:49:49;25.80;99.90
592;DHT22;283;53.608;10.046;2022-07-24T10:52:26;25.90;99.90
592;DHT22;283;53.608;10.046;2022-07-24T10:55:23;26.10;99.90
592;DHT22;283;53.608;10.046;2022-07-24T10:58:12;26.40;99.90
592;DHT22;283;53.608;10.046;2022-07-24T11:00:43;26.50;99.90
592;DHT22;283;53.608;10.046;2022-07-24T11:03:18;26.50;99.90
592;DHT22;283;53.608;10.046;2022-07-24T11:06:03;26.50;99.90
592;DHT22;283;53.608;10.046;2022-07-24T11:08:32;26.50;99.90
592;DHT22;283;53.608;10.046;2022-07-24T11:11:14;26.40;99.90
592;DHT22;283;53.608;10.046;2022-07-24T11:13:50;26.50;99.90
592;DHT22;283;53.608;10.046;2022-07-24T11:16:24;26.30;99.90
592;DHT22;283;53.608;10.046;2022-07-24T11:19:24;26.40;99.90
592;DHT22;283;53.608;10.046;2022-07-24T11:22:07;26.40;99.90
592;DHT22;283;53.608;10.046;2022-07-24T11:27:23;26.50;99.90
592;DHT22;283;53.608;10.046;2022-07-24T11:29:53;26.70;99.90
592;DHT22;283;53.608;10.046;2022-07-24T11:32:21;26.70;99.90
592;DHT22;283;53.608;10.046;2022-07-24T11:34:50;26.80;99.90
592;DHT22;283;53.608;10.046;2022-07-24T11:37:19;26.80;99.90
592;DHT22;283;53.608;10.046;2022-07-24T11:39:51;27.00;99.90
592;DHT22;283;53.608;10.046;2022-07-24T11:42:19;27.10;99.90
592;DHT22;283;53.608;10.046;2022-07-24T11:44:48;27.10;99.90
592;DHT22;283;53.608;10.046;2022-07-24T11:47:22;27.10;99.90
592;DHT22;283;53.608;10.046;2022-07-24T11:49:52;27.00;99.90
592;DHT22;283;53.608;10.046;2022-07-24T11:52:23;27.00;99.90
592;DHT22;283;53.608;10.046;2022-07-24T11:54:53;27.00;99.90
592;DHT22;283;53.608;10.046;2022-07-24T11:57:23;27.10;99.90
592;DHT22;283;53.608;10.046;2022-07-24T12:00:15;27.10;99.90
592;DHT22;283;53.608;10.046;2022-07-24T12:02:46;27.20;99.90
592;DHT22;283;53.608;10.046;2022-07-24T12:05:23;27.10;99.90
592;DHT22;283;53.608;10.046;2022-07-24T12:07:52;27.20;99.90
592;DHT22;283;53.608;10.046;2022-07-24T12:10:20;27.30;99.90
592;DHT22;283;53.608;10.046;2022-07-24T12:12:50;27.40;99.90
592;DHT22;283;53.608;10.046;2022-07-24T12:15:21;27.50;99.90
592;DHT22;283;53.608;10.046;2022-07-24T12:17:59;27.70;99.90
592;DHT22;283;53.608;10.046;2022-07-24T12:20:30;27.90;99.90
592;DHT22;283;53.608;10.046;2022-07-24T12:23:00;28.10;99.90
592;DHT22;283;53.608;10.046;2022-07-24T12:25:29;28.30;99.90
592;DHT22;283;53.608;10.046;2022-07-24T12:28:05;28.50;99.90
592;DHT22;283;53.608;10.046;2022-07-24T12:30:35;28.70;99.90
592;DHT22;283;53.608;10.046;2022-07-24T12:33:06;29.00;99.90
592;DHT22;283;53.608;10.046;2022-07-24T12:35:52;29.20;99.90
592;DHT22;283;53.608;10.046;2022-07-24T12:38:25;29.40;99.90
592;DHT22;283;53.608;10.046;2022-07-24T12:41:01;29.40;99.90
592;DHT22;283;53.608;10.046;2022-07-24T12:43:29;29.40;99.90
592;DHT22;283;53.608;10.046;2022-07-24T12:46:08;29.30;99.90
592;DHT22;283;53.608;10.046;2022-07-24T12:48:37;29.30;99.90
592;DHT22;283;53.608;10.046;2022-07-24T12:51:08;29.30;99.90
592;DHT22;283;53.608;10.046;2022-07-24T12:53:40;29.20;99.90
592;DHT22;283;53.608;10.046;2022-07-24T12:56:10;29.20;99.90
592;DHT22;283;53.608;10.046;2022-07-24T12:58:54;29.30;99.90
592;DHT22;283;53.608;10.046;2022-07-24T13:01:23;29.50;99.90
592;DHT22;283;53.608;10.046;2022-07-24T13:03:56;29.50;99.90
592;DHT22;283;53.608;10.046;2022-07-24T13:06:36;29.50;99.90
592;DHT22;283;53.608;10.046;2022-07-24T13:09:05;29.50;99.90
592;DHT22;283;53.608;10.046;2022-07-24T13:11:35;29.60;99.90
592;DHT22;283;53.608;10.046;2022-07-24T13:14:03;29.70;99.90
592;DHT22;283;53.608;10.046;2022-07-24T13:16:34;29.80;99.70
592;DHT22;283;53.608;10.046;2022-07-24T13:19:05;29.90;99.60
592;DHT22;283;53.608;10.046;2022-07-24T13:21:33;29.90;99.50
592;DHT22;283;53.608;10.046;2022-07-24T13:24:01;29.90;98.80
592;DHT22;283;53.608;10.046;2022-07-24T13:26:30;29.80;99.00
592;DHT22;283;53.608;10.046;2022-07-24T13:28:57;29.80;98.80
592;DHT22;283;53.608;10.046;2022-07-24T13:31:26;29.80;98.70
592;DHT22;283;53.608;10.046;2022-07-24T13:33:53;29.80;98.70
592;DHT22;283;53.608;10.046;2022-07-24T13:36:23;29.70;98.90
592;DHT22;283;53.608;10.046;2022-07-24T13:38:51;29.70;99.00
592;DHT22;283;53.608;10.046;2022-07-24T13:41:19;29.70;99.10
592;DHT22;283;53.608;10.046;2022-07-24T13:43:48;29.70;99.10
592;DHT22;283;53.608;10.046;2022-07-24T13:46:17;29.60;99.10
592;DHT22;283;53.608;10.046;2022-07-24T13:48:47;29.60;99.30
592;DHT22;283;53.608;10.046;2022-07-24T13:51:24;29.60;99.40
592;DHT22;283;53.608;10.046;2022-07-24T13:53:53;29.60;98.80
592;DHT22;283;53.608;10.046;2022-07-24T13:56:21;29.50;98.80
592;DHT22;283;53.608;10.046;2022-07-24T13:58:49;29.50;98.90
592;DHT22;283;53.608;10.046;2022-07-24T14:01:17;29.50;98.70
592;DHT22;283;53.608;10.046;2022-07-24T14:04:00;29.50;98.60
592;DHT22;283;53.608;10.046;2022-07-24T14:06:50;29.50;98.70
592;DHT22;283;53.608;10.046;2022-07-24T14:09:18;29.50;98.80
592;DHT22;283;53.608;10.046;2022-07-24T14:11:46;29.60;99.10
592;DHT22;283;53.608;10.046;2022-07-24T14:14:14;29.60;98.70
592;DHT22;283;53.608;10.046;2022-07-24T14:16:42;29.60;98.80
592;DHT22;283;53.608;10.046;2022-07-24T14:19:10;29.50;98.60
592;DHT22;283;53.608;10.046;2022-07-24T14:21:38;29.50;98.40
592;DHT22;283;53.608;10.046;2022-07-24T14:24:08;29.60;98.70
592;DHT22;283;53.608;10.046;2022-07-24T14:26:42;29.50;98.10
592;DHT22;283;53.608;10.046;2022-07-24T14:29:10;29.40;98.00
592;DHT22;283;53.608;10.046;2022-07-24T14:31:38;29.50;98.20
592;DHT22;283;53.608;10.046;2022-07-24T14:34:07;29.50;98.30
592;DHT22;283;53.608;10.046;2022-07-24T14:36:35;29.70;98.40
592;DHT22;283;53.608;10.046;2022-07-24T14:39:03;29.80;98.70
592;DHT22;283;53.608;10.046;2022-07-24T14:41:33;29.90;97.90
592;DHT22;283;53.608;10.046;2022-07-24T14:44:01;30.00;97.90
592;DHT22;283;53.608;10.046;2022-07-24T14:46:39;30.00;97.70
592;DHT22;283;53.608;10.046;2022-07-24T14:49:08;30.00;97.80
592;DHT22;283;53.608;10.046;2022-07-24T14:51:37;30.00;97.70
592;DHT22;283;53.608;10.046;2022-07-24T14:54:05;29.90;97.80
592;DHT22;283;53.608;10.046;2022-07-24T14:56:36;29.90;97.80
592;DHT22;283;53.608;10.046;2022-07-24T14:59:05;29.80;97.90
592;DHT22;283;53.608;10.046;2022-07-24T15:01:33;29.70;97.80
592;DHT22;283;53.608;10.046;2022-07-24T15:04:05;29.70;98.00
592;DHT22;283;53.608;10.046;2022-07-24T15:06:35;29.70;97.90
592;DHT22;283;53.608;10.046;2022-07-24T15:09:04;29.60;97.80
592;DHT22;283;53.608;10.046;2022-07-24T15:11:32;29.60;97.60
592;DHT22;283;53.608;10.046;2022-07-24T15:14:01;29.50;98.20
592;DHT22;283;53.608;10.046;2022-07-24T15:16:30;29.50;98.00
592;DHT22;283;53.608;10.046;2022-07-24T15:18:58;29.60;97.80
592;DHT22;283;53.608;10.046;2022-07-24T15:21:33;29.60;98.00
592;DHT22;283;53.608;10.046;2022-07-24T15:24:00;29.60;97.70
592;DHT22;283;53.608;10.046;2022-07-24T15:26:29;29.60;97.50
592;DHT22;283;53.608;10.046;2022-07-24T15:28:57;29.60;97.60
592;DHT22;283;53.608;10.046;2022-07-24T15:31:26;29.60;97.60
592;DHT22;283;53.608;10.046;2022-07-24T15:33:55;29.60;97.40
592;DHT22;283;53.608;10.046;2022-07-24T15:36:23;29.70;97.50
592;DHT22;283;53.608;10.046;2022-07-24T15:38:52;29.70;97.80
592;DHT22;283;53.608;10.046;2022-07-24T15:41:20;29.70;97.80
592;DHT22;283;53.608;10.046;2022-07-24T15:43:48;29.70;97.80
592;DHT22;283;53.608;10.046;2022-07-24T15:46:15;29.70;97.60
592;DHT22;283;53.608;10.046;2022-07-24T15:48:45;29.80;97.60
592;DHT22;283;53.608;10.046;2022-07-24T15:51:13;29.80;97.50
592;DHT22;283;53.608;10.046;2022-07-24T15:53:41;29.80;97.30
592;DHT22;283;53.608;10.046;2022-07-24T15:56:09;29.80;97.40
592;DHT22;283;53.608;10.046;2022-07-24T15:58:37;29.80;97.60
592;DHT22;283;53.608;10.046;2022-07-24T16:01:05;29.70;97.40
592;DHT22;283;53.608;10.046;2022-07-24T16:03:54;29.70;97.40
592;DHT22;283;53.608;10.046;2022-07-24T16:06:22;29.60;97.40
592;DHT22;283;53.608;10.046;2022-07-24T16:08:50;29.50;97.50
592;DHT22;283;53.608;10.046;2022-07-24T16:11:18;29.50;97.50
592;DHT22;283;53.608;10.046;2022-07-24T16:13:46;29.50;97.20
592;DHT22;283;53.608;10.046;2022-07-24T16:16:14;29.50;97.40
592;DHT22;283;53.608;10.046;2022-07-24T16:18:42;29.50;97.40
592;DHT22;283;53.608;10.046;2022-07-24T16:21:12;29.60;97.40
592;DHT22;283;53.608;10.046;2022-07-24T16:23:39;29.80;97.50
592;DHT22;283;53.608;10.046;2022-07-24T16:26:07;29.90;97.90
592;DHT22;283;53.608;10.046;2022-07-24T16:28:35;30.00;97.40
592;DHT22;283;53.608;10.046;2022-07-24T16:31:03;30.10;97.40
592;DHT22;283;53.608;10.046;2022-07-24T16:33:33;30.10;97.20
592;DHT22;283;53.608;10.046;2022-07-24T16:36:09;30.10;97.20
592;DHT22;283;53.608;10.046;2022-07-24T16:38:38;30.10;97.10
592;DHT22;283;53.608;10.046;2022-07-24T16:41:06;30.00;97.10
592;DHT22;283;53.608;10.046;2022-07-24T16:43:38;29.90;97.20
592;DHT22;283;53.608;10.046;2022-07-24T16:46:06;29.80;97.10